sensor_id;sensor_type;location;lat;lon;timestamp;P1;durP1;ratioP1;P2;durP2;ratioP2
16314;SDS011;8266;52.150;4.768;2023-05-14T00:02:08;9.35;;;8.35;;
16314;SDS011;8266;52.150;4.768;2023-05-14T00:04:35;9.43;;;8.45;;
16314;SDS011;8266;52.150;4.768;2023-05-14T00:07:02;9.93;;;8.27;;
16314;SDS011;8266;52.150;4.768;2023-05-14T00:09:29;9.45;;;8.45;;
16314;SDS011;8266;52.150;4.768;2023-05-14T00:11:56;11.50;;;8.55;;
16314;SDS011;8266;52.150;4.768;2023-05-14T00:14:23;8.60;;;7.15;;
16314;SDS011;8266;52.150;4.768;2023-05-14T00:16:50;8.38;;;7.57;;
16314;SDS011;8266;52.150;4.768;2023-05-14T00:19:18;11.13;;;8.40;;
16314;SDS011;8266;52.150;4.768;2023-05-14T00:21:45;10.43;;;8.20;;
16314;SDS011;8266;52.150;4.768;2023-05-14T00:24:12;9.55;;;7.72;;
16314;SDS011;8266;52.150;4.768;2023-05-14T00:26:39;8.05;;;7.10;;
16314;SDS011;8266;52.150;4.768;2023-05-14T00:29:06;8.73;;;7.82;;
16314;SDS011;8266;52.150;4.768;2023-05-14T00:31:33;9.38;;;7.65;;
16314;SDS011;8266;52.150;4.768;2023-05-14T00:34:00;9.63;;;8.35;;
16314;SDS011;8266;52.150;4.768;2023-05-14T00:36:29;7.90;;;7.18;;
16314;SDS011;8266;52.150;4.768;2023-05-14T00:38:56;10.25;;;9.10;;
16314;SDS011;8266;52.150;4.768;2023-05-14T00:41:23;8.93;;;7.97;;
16314;SDS011;8266;52.150;4.768;2023-05-14T00:43:50;10.00;;;7.80;;
16314;SDS011;8266;52.150;4.768;2023-05-14T00:46:17;8.63;;;7.53;;
16314;SDS011;8266;52.150;4.768;2023-05-14T00:48:44;9.75;;;7.50;;
16314;SDS011;8266;52.150;4.768;2023-05-14T00:51:12;8.82;;;7.82;;
16314;SDS011;8266;52.150;4.768;2023-05-14T00:53:40;8.98;;;8.07;;
16314;SDS011;8266;52.150;4.768;2023-05-14T00:56:07;9.52;;;7.70;;
16314;SDS011;8266;52.150;4.768;2023-05-14T00:58:35;12.48;;;8.88;;
16314;SDS011;8266;52.150;4.768;2023-05-14T01:01:02;9.82;;;8.35;;
16314;SDS011;8266;52.150;4.768;2023-05-14T01:03:29;11.10;;;9.75;;
16314;SDS011;8266;52.150;4.768;2023-05-14T01:05:58;14.10;;;9.13;;
16314;SDS011;8266;52.150;4.768;2023-05-14T01:08:34;11.18;;;9.20;;
16314;SDS011;8266;52.150;4.768;2023-05-14T01:11:18;10.05;;;8.95;;
16314;SDS011;8266;52.150;4.768;2023-05-14T01:13:51;11.60;;;9.40;;
16314;SDS011;8266;52.150;4.768;2023-05-14T01:16:26;9.77;;;8.77;;
16314;SDS011;8266;52.150;4.768;2023-05-14T01:18:54;10.57;;;8.82;;
16314;SDS011;8266;52.150;4.768;2023-05-14T01:21:27;10.57;;;9.02;;
16314;SDS011;8266;52.150;4.768;2023-05-14T01:24:00;11.80;;;9.20;;
16314;SDS011;8266;52.150;4.768;2023-05-14T01:26:27;10.43;;;8.95;;
16314;SDS011;8266;52.150;4.768;2023-05-14T01:28:55;10.45;;;9.30;;
16314;SDS011;8266;52.150;4.768;2023-05-14T01:31:28;10.38;;;8.88;;
16314;SDS011;8266;52.150;4.768;2023-05-14T01:33:56;10.60;;;8.73;;
16314;SDS011;8266;52.150;4.768;2023-05-14T01:36:25;10.80;;;8.93;;
16314;SDS011;8266;52.150;4.768;2023-05-14T01:38:53;10.20;;;8.50;;
16314;SDS011;8266;52.150;4.768;2023-05-14T01:41:21;10.13;;;9.00;;
16314;SDS011;8266;52.150;4.768;2023-05-14T01:43:50;11.57;;;8.07;;
16314;SDS011;8266;52.150;4.768;2023-05-14T01:46:17;9.23;;;8.32;;
16314;SDS011;8266;52.150;4.768;2023-05-14T01:48:44;10.10;;;9.02;;
16314;SDS011;8266;52.150;4.768;2023-05-14T01:51:12;9.63;;;8.68;;
16314;SDS011;8266;52.150;4.768;2023-05-14T01:53:40;9.88;;;8.88;;
16314;SDS011;8266;52.150;4.768;2023-05-14T01:56:07;9.25;;;8.35;;
16314;SDS011;8266;52.150;4.768;2023-05-14T01:58:34;11.10;;;8.93;;
16314;SDS011;8266;52.150;4.768;2023-05-14T02:01:01;9.48;;;8.55;;
16314;SDS011;8266;52.150;4.768;2023-05-14T02:03:28;10.35;;;9.00;;
16314;SDS011;8266;52.150;4.768;2023-05-14T02:05:55;10.15;;;9.05;;
16314;SDS011;8266;52.150;4.768;2023-05-14T02:08:22;10.55;;;9.45;;
16314;SDS011;8266;52.150;4.768;2023-05-14T02:10:50;11.18;;;8.80;;
16314;SDS011;8266;52.150;4.768;2023-05-14T02:13:17;10.68;;;9.18;;
16314;SDS011;8266;52.150;4.768;2023-05-14T02:15:45;9.85;;;8.77;;
16314;SDS011;8266;52.150;4.768;2023-05-14T02:18:11;11.20;;;9.13;;
16314;SDS011;8266;52.150;4.768;2023-05-14T02:20:38;11.77;;;10.50;;
16314;SDS011;8266;52.150;4.768;2023-05-14T02:23:06;12.20;;;9.77;;
16314;SDS011;8266;52.150;4.768;2023-05-14T02:25:32;11.38;;;9.93;;
16314;SDS011;8266;52.150;4.768;2023-05-14T02:28:01;14.95;;;10.02;;
16314;SDS011;8266;52.150;4.768;2023-05-14T02:30:28;11.80;;;9.02;;
16314;SDS011;8266;52.150;4.768;2023-05-14T02:32:55;12.60;;;10.15;;
16314;SDS011;8266;52.150;4.768;2023-05-14T02:35:22;12.68;;;9.70;;
16314;SDS011;8266;52.150;4.768;2023-05-14T02:37:49;10.70;;;9.18;;
16314;SDS011;8266;52.150;4.768;2023-05-14T02:40:16;11.68;;;10.40;;
16314;SDS011;8266;52.150;4.768;2023-05-14T02:42:43;12.90;;;9.68;;
16314;SDS011;8266;52.150;4.768;2023-05-14T02:45:11;11.13;;;10.05;;
16314;SDS011;8266;52.150;4.768;2023-05-14T02:47:38;11.10;;;9.77;;
16314;SDS011;8266;52.150;4.768;2023-05-14T02:50:06;11.32;;;10.23;;
16314;SDS011;8266;52.150;4.768;2023-05-14T02:52:34;15.07;;;9.88;;
16314;SDS011;8266;52.150;4.768;2023-05-14T02:55:01;11.57;;;10.48;;
16314;SDS011;8266;52.150;4.768;2023-05-14T02:57:28;11.77;;;9.93;;
16314;SDS011;8266;52.150;4.768;2023-05-14T02:59:55;11.38;;;10.25;;
16314;SDS011;8266;52.150;4.768;2023-05-14T03:02:23;12.15;;;10.15;;
16314;SDS011;8266;52.150;4.768;2023-05-14T03:04:50;12.40;;;11.13;;
16314;SDS011;8266;52.150;4.768;2023-05-14T03:07:17;11.23;;;9.60;;
16314;SDS011;8266;52.150;4.768;2023-05-14T03:09:44;10.88;;;9.68;;
16314;SDS011;8266;52.150;4.768;2023-05-14T03:12:11;12.75;;;10.45;;
16314;SDS011;8266;52.150;4.768;2023-05-14T03:14:38;12.48;;;10.25;;
16314;SDS011;8266;52.150;4.768;2023-05-14T03:17:05;13.60;;;10.57;;
16314;SDS011;8266;52.150;4.768;2023-05-14T03:19:33;12.07;;;10.80;;
16314;SDS011;8266;52.150;4.768;2023-05-14T03:22:00;11.85;;;10.35;;
16314;SDS011;8266;52.150;4.768;2023-05-14T03:24:27;11.75;;;10.20;;
16314;SDS011;8266;52.150;4.768;2023-05-14T03:26:55;11.32;;;10.23;;
16314;SDS011;8266;52.150;4.768;2023-05-14T03:29:22;13.52;;;10.52;;
16314;SDS011;8266;52.150;4.768;2023-05-14T03:31:49;11.15;;;9.93;;
16314;SDS011;8266;52.150;4.768;2023-05-14T03:34:17;13.18;;;10.35;;
16314;SDS011;8266;52.150;4.768;2023-05-14T03:36:45;11.52;;;9.82;;
16314;SDS011;8266;52.150;4.768;2023-05-14T03:39:12;10.65;;;9.13;;
16314;SDS011;8266;52.150;4.768;2023-05-14T03:41:43;10.35;;;9.27;;
16314;SDS011;8266;52.150;4.768;2023-05-14T03:44:10;10.65;;;9.65;;
16314;SDS011;8266;52.150;4.768;2023-05-14T03:46:37;11.02;;;9.65;;
16314;SDS011;8266;52.150;4.768;2023-05-14T03:49:05;14.18;;;9.82;;
16314;SDS011;8266;52.150;4.768;2023-05-14T03:51:31;12.77;;;9.38;;
16314;SDS011;8266;52.150;4.768;2023-05-14T03:54:00;10.15;;;9.15;;
16314;SDS011;8266;52.150;4.768;2023-05-14T03:56:28;12.10;;;10.75;;
16314;SDS011;8266;52.150;4.768;2023-05-14T03:58:54;11.10;;;9.90;;
16314;SDS011;8266;52.150;4.768;2023-05-14T04:01:21;9.75;;;8.80;;
16314;SDS011;8266;52.150;4.768;2023-05-14T04:03:48;11.05;;;9.85;;
16314;SDS011;8266;52.150;4.768;2023-05-14T04:06:15;10.35;;;8.60;;
16314;SDS011;8266;52.150;4.768;2023-05-14T04:08:42;10.65;;;8.60;;
16314;SDS011;8266;52.150;4.768;2023-05-14T04:11:11;10.07;;;8.80;;
16314;SDS011;8266;52.150;4.768;2023-05-14T04:13:38;11.15;;;9.43;;
16314;SDS011;8266;52.150;4.768;2023-05-14T04:16:05;11.10;;;9.98;;
16314;SDS011;8266;52.150;4.768;2023-05-14T04:18:32;10.23;;;9.23;;
16314;SDS011;8266;52.150;4.768;2023-05-14T04:20:59;11.55;;;9.20;;
16314;SDS011;8266;52.150;4.768;2023-05-14T04:23:26;10.18;;;9.18;;
16314;SDS011;8266;52.150;4.768;2023-05-14T04:25:53;12.18;;;10.02;;
16314;SDS011;8266;52.150;4.768;2023-05-14T04:28:22;10.95;;;9.85;;
16314;SDS011;8266;52.150;4.768;2023-05-14T04:30:49;10.57;;;9.48;;
16314;SDS011;8266;52.150;4.768;2023-05-14T04:33:16;10.18;;;8.75;;
16314;SDS011;8266;52.150;4.768;2023-05-14T04:35:43;11.65;;;9.55;;
16314;SDS011;8266;52.150;4.768;2023-05-14T04:38:10;10.25;;;9.20;;
16314;SDS011;8266;52.150;4.768;2023-05-14T04:40:38;10.35;;;8.73;;
16314;SDS011;8266;52.150;4.768;2023-05-14T04:43:05;10.20;;;9.18;;
16314;SDS011;8266;52.150;4.768;2023-05-14T04:45:34;10.70;;;9.55;;
16314;SDS011;8266;52.150;4.768;2023-05-14T04:48:01;11.25;;;10.07;;
16314;SDS011;8266;52.150;4.768;2023-05-14T04:50:28;13.38;;;10.15;;
16314;SDS011;8266;52.150;4.768;2023-05-14T04:52:55;16.45;;;10.65;;
16314;SDS011;8266;52.150;4.768;2023-05-14T04:55:22;11.50;;;9.82;;
16314;SDS011;8266;52.150;4.768;2023-05-14T04:57:49;10.95;;;9.85;;
16314;SDS011;8266;52.150;4.768;2023-05-14T05:00:16;11.38;;;9.63;;
16314;SDS011;8266;52.150;4.768;2023-05-14T05:02:47;14.65;;;10.80;;
16314;SDS011;8266;52.150;4.768;2023-05-14T05:05:14;12.10;;;10.85;;
16314;SDS011;8266;52.150;4.768;2023-05-14T05:07:41;13.38;;;12.00;;
16314;SDS011;8266;52.150;4.768;2023-05-14T05:10:08;13.85;;;10.95;;
16314;SDS011;8266;52.150;4.768;2023-05-14T05:12:35;12.02;;;10.65;;
16314;SDS011;8266;52.150;4.768;2023-05-14T05:15:02;10.80;;;9.70;;
16314;SDS011;8266;52.150;4.768;2023-05-14T05:17:29;14.40;;;9.90;;
16314;SDS011;8266;52.150;4.768;2023-05-14T05:19:58;11.40;;;10.20;;
16314;SDS011;8266;52.150;4.768;2023-05-14T05:22:24;11.13;;;10.00;;
16314;SDS011;8266;52.150;4.768;2023-05-14T05:24:52;11.30;;;10.20;;
16314;SDS011;8266;52.150;4.768;2023-05-14T05:27:18;11.50;;;10.15;;
16314;SDS011;8266;52.150;4.768;2023-05-14T05:29:46;12.45;;;10.05;;
16314;SDS011;8266;52.150;4.768;2023-05-14T05:32:13;14.02;;;11.10;;
16314;SDS011;8266;52.150;4.768;2023-05-14T05:34:40;12.88;;;10.30;;
16314;SDS011;8266;52.150;4.768;2023-05-14T05:37:08;11.68;;;10.45;;
16314;SDS011;8266;52.150;4.768;2023-05-14T05:39:37;14.27;;;11.38;;
16314;SDS011;8266;52.150;4.768;2023-05-14T05:42:04;12.93;;;11.60;;
16314;SDS011;8266;52.150;4.768;2023-05-14T05:44:32;12.82;;;11.63;;
16314;SDS011;8266;52.150;4.768;2023-05-14T05:46:59;13.73;;;11.80;;
16314;SDS011;8266;52.150;4.768;2023-05-14T05:49:26;13.93;;;12.52;;
16314;SDS011;8266;52.150;4.768;2023-05-14T05:51:53;12.10;;;10.73;;
16314;SDS011;8266;52.150;4.768;2023-05-14T05:54:21;11.77;;;10.55;;
16314;SDS011;8266;52.150;4.768;2023-05-14T05:56:48;13.13;;;11.60;;
16314;SDS011;8266;52.150;4.768;2023-05-14T05:59:15;12.25;;;10.27;;
16314;SDS011;8266;52.150;4.768;2023-05-14T06:01:42;12.10;;;10.90;;
16314;SDS011;8266;52.150;4.768;2023-05-14T06:04:09;13.23;;;11.90;;
16314;SDS011;8266;52.150;4.768;2023-05-14T06:06:36;12.45;;;11.25;;
16314;SDS011;8266;52.150;4.768;2023-05-14T06:09:03;12.95;;;10.85;;
16314;SDS011;8266;52.150;4.768;2023-05-14T06:11:32;11.52;;;10.40;;
16314;SDS011;8266;52.150;4.768;2023-05-14T06:13:59;13.52;;;10.23;;
16314;SDS011;8266;52.150;4.768;2023-05-14T06:16:26;10.93;;;9.80;;
16314;SDS011;8266;52.150;4.768;2023-05-14T06:18:53;10.32;;;9.32;;
16314;SDS011;8266;52.150;4.768;2023-05-14T06:21:20;10.73;;;9.48;;
16314;SDS011;8266;52.150;4.768;2023-05-14T06:23:47;11.05;;;9.93;;
16314;SDS011;8266;52.150;4.768;2023-05-14T06:26:14;11.45;;;10.32;;
16314;SDS011;8266;52.150;4.768;2023-05-14T06:28:42;10.95;;;9.85;;
16314;SDS011;8266;52.150;4.768;2023-05-14T06:31:09;10.15;;;9.15;;
16314;SDS011;8266;52.150;4.768;2023-05-14T06:33:36;11.85;;;10.00;;
16314;SDS011;8266;52.150;4.768;2023-05-14T06:36:04;12.23;;;10.35;;
16314;SDS011;8266;52.150;4.768;2023-05-14T06:38:32;14.18;;;11.93;;
16314;SDS011;8266;52.150;4.768;2023-05-14T06:40:59;12.90;;;11.02;;
16314;SDS011;8266;52.150;4.768;2023-05-14T06:43:26;12.60;;;11.40;;
16314;SDS011;8266;52.150;4.768;2023-05-14T06:45:54;12.68;;;11.38;;
16314;SDS011;8266;52.150;4.768;2023-05-14T06:48:21;13.43;;;12.02;;
16314;SDS011;8266;52.150;4.768;2023-05-14T06:50:48;14.20;;;11.93;;
16314;SDS011;8266;52.150;4.768;2023-05-14T06:53:15;12.38;;;11.18;;
16314;SDS011;8266;52.150;4.768;2023-05-14T06:55:42;14.50;;;12.00;;
16314;SDS011;8266;52.150;4.768;2023-05-14T06:58:09;15.93;;;12.68;;
16314;SDS011;8266;52.150;4.768;2023-05-14T07:00:36;12.48;;;11.18;;
16314;SDS011;8266;52.150;4.768;2023-05-14T07:03:04;14.48;;;12.02;;
16314;SDS011;8266;52.150;4.768;2023-05-14T07:05:31;12.07;;;10.88;;
16314;SDS011;8266;52.150;4.768;2023-05-14T07:07:58;12.98;;;11.00;;
16314;SDS011;8266;52.150;4.768;2023-05-14T07:10:25;11.00;;;9.90;;
16314;SDS011;8266;52.150;4.768;2023-05-14T07:12:52;11.30;;;9.95;;
16314;SDS011;8266;52.150;4.768;2023-05-14T07:15:19;12.13;;;10.32;;
16314;SDS011;8266;52.150;4.768;2023-05-14T07:17:46;10.50;;;9.50;;
16314;SDS011;8266;52.150;4.768;2023-05-14T07:20:14;11.23;;;10.13;;
16314;SDS011;8266;52.150;4.768;2023-05-14T07:22:41;11.60;;;10.50;;
16314;SDS011;8266;52.150;4.768;2023-05-14T07:25:08;11.40;;;10.00;;
16314;SDS011;8266;52.150;4.768;2023-05-14T07:27:35;10.73;;;9.63;;
16314;SDS011;8266;52.150;4.768;2023-05-14T07:30:02;12.38;;;9.13;;
16314;SDS011;8266;52.150;4.768;2023-05-14T07:32:30;10.32;;;9.02;;
16314;SDS011;8266;52.150;4.768;2023-05-14T07:34:56;9.57;;;8.68;;
16314;SDS011;8266;52.150;4.768;2023-05-14T07:37:25;10.07;;;8.77;;
16314;SDS011;8266;52.150;4.768;2023-05-14T07:39:52;10.50;;;8.85;;
16314;SDS011;8266;52.150;4.768;2023-05-14T07:42:19;9.30;;;8.27;;
16314;SDS011;8266;52.150;4.768;2023-05-14T07:44:46;8.75;;;7.80;;
16314;SDS011;8266;52.150;4.768;2023-05-14T07:47:13;9.13;;;7.68;;
16314;SDS011;8266;52.150;4.768;2023-05-14T07:49:40;8.07;;;7.28;;
16314;SDS011;8266;52.150;4.768;2023-05-14T07:52:06;9.65;;;7.45;;
16314;SDS011;8266;52.150;4.768;2023-05-14T07:54:35;9.20;;;7.75;;
16314;SDS011;8266;52.150;4.768;2023-05-14T07:57:02;9.35;;;6.97;;
16314;SDS011;8266;52.150;4.768;2023-05-14T07:59:29;8.45;;;7.50;;
16314;SDS011;8266;52.150;4.768;2023-05-14T08:01:56;9.63;;;7.53;;
16314;SDS011;8266;52.150;4.768;2023-05-14T08:04:23;9.60;;;7.68;;
16314;SDS011;8266;52.150;4.768;2023-05-14T08:06:50;10.27;;;7.20;;
16314;SDS011;8266;52.150;4.768;2023-05-14T08:09:17;9.88;;;6.82;;
16314;SDS011;8266;52.150;4.768;2023-05-14T08:11:45;6.78;;;6.15;;
16314;SDS011;8266;52.150;4.768;2023-05-14T08:14:12;7.95;;;6.40;;
16314;SDS011;8266;52.150;4.768;2023-05-14T08:16:39;10.05;;;6.60;;
16314;SDS011;8266;52.150;4.768;2023-05-14T08:19:08;6.95;;;5.55;;
16314;SDS011;8266;52.150;4.768;2023-05-14T08:21:35;7.40;;;6.10;;
16314;SDS011;8266;52.150;4.768;2023-05-14T08:24:02;11.82;;;6.28;;
16314;SDS011;8266;52.150;4.768;2023-05-14T08:26:29;8.38;;;5.65;;
16314;SDS011;8266;52.150;4.768;2023-05-14T08:28:58;7.97;;;5.32;;
16314;SDS011;8266;52.150;4.768;2023-05-14T08:31:24;7.00;;;5.57;;
16314;SDS011;8266;52.150;4.768;2023-05-14T08:33:52;9.27;;;5.45;;
16314;SDS011;8266;52.150;4.768;2023-05-14T08:36:19;8.88;;;5.45;;
16314;SDS011;8266;52.150;4.768;2023-05-14T08:38:46;10.02;;;5.47;;
16314;SDS011;8266;52.150;4.768;2023-05-14T08:41:14;9.80;;;4.95;;
16314;SDS011;8266;52.150;4.768;2023-05-14T08:43:43;7.10;;;5.25;;
16314;SDS011;8266;52.150;4.768;2023-05-14T08:46:17;6.90;;;5.32;;
16314;SDS011;8266;52.150;4.768;2023-05-14T08:48:49;8.73;;;5.88;;
16314;SDS011;8266;52.150;4.768;2023-05-14T08:51:22;8.00;;;5.43;;
16314;SDS011;8266;52.150;4.768;2023-05-14T08:53:49;8.55;;;5.68;;
16314;SDS011;8266;52.150;4.768;2023-05-14T08:56:16;8.52;;;5.60;;
16314;SDS011;8266;52.150;4.768;2023-05-14T08:58:44;9.50;;;5.05;;
16314;SDS011;8266;52.150;4.768;2023-05-14T09:01:11;9.80;;;5.25;;
16314;SDS011;8266;52.150;4.768;2023-05-14T09:03:39;6.97;;;5.15;;
16314;SDS011;8266;52.150;4.768;2023-05-14T09:06:07;7.30;;;4.95;;
16314;SDS011;8266;52.150;4.768;2023-05-14T09:08:34;6.07;;;5.25;;
16314;SDS011;8266;52.150;4.768;2023-05-14T09:11:02;6.65;;;4.90;;
16314;SDS011;8266;52.150;4.768;2023-05-14T09:13:29;5.32;;;4.65;;
16314;SDS011;8266;52.150;4.768;2023-05-14T09:15:56;8.30;;;4.95;;
16314;SDS011;8266;52.150;4.768;2023-05-14T09:18:25;5.82;;;4.63;;
16314;SDS011;8266;52.150;4.768;2023-05-14T09:20:53;6.53;;;4.80;;
16314;SDS011;8266;52.150;4.768;2023-05-14T09:23:20;5.45;;;4.72;;
16314;SDS011;8266;52.150;4.768;2023-05-14T09:25:50;8.48;;;5.05;;
16314;SDS011;8266;52.150;4.768;2023-05-14T09:28:17;5.75;;;4.22;;
16314;SDS011;8266;52.150;4.768;2023-05-14T09:30:46;8.52;;;5.07;;
16314;SDS011;8266;52.150;4.768;2023-05-14T09:33:24;6.20;;;4.65;;
16314;SDS011;8266;52.150;4.768;2023-05-14T09:35:55;5.80;;;4.03;;
16314;SDS011;8266;52.150;4.768;2023-05-14T09:38:26;6.45;;;4.22;;
16314;SDS011;8266;52.150;4.768;2023-05-14T09:40:54;7.95;;;4.65;;
16314;SDS011;8266;52.150;4.768;2023-05-14T09:43:21;6.45;;;4.60;;
16314;SDS011;8266;52.150;4.768;2023-05-14T09:45:49;5.38;;;3.45;;
16314;SDS011;8266;52.150;4.768;2023-05-14T09:48:15;5.55;;;3.28;;
16314;SDS011;8266;52.150;4.768;2023-05-14T09:50:43;7.38;;;4.35;;
16314;SDS011;8266;52.150;4.768;2023-05-14T09:53:12;5.38;;;4.10;;
16314;SDS011;8266;52.150;4.768;2023-05-14T09:55:39;4.43;;;4.00;;
16314;SDS011;8266;52.150;4.768;2023-05-14T09:58:06;5.68;;;3.17;;
16314;SDS011;8266;52.150;4.768;2023-05-14T10:00:34;6.90;;;3.83;;
16314;SDS011;8266;52.150;4.768;2023-05-14T10:03:03;5.15;;;3.47;;
16314;SDS011;8266;52.150;4.768;2023-05-14T10:05:32;5.20;;;4.22;;
16314;SDS011;8266;52.150;4.768;2023-05-14T10:08:02;4.30;;;3.20;;
16314;SDS011;8266;52.150;4.768;2023-05-14T10:10:35;6.80;;;3.63;;
16314;SDS011;8266;52.150;4.768;2023-05-14T10:13:03;6.55;;;3.28;;
16314;SDS011;8266;52.150;4.768;2023-05-14T10:15:36;4.30;;;3.33;;
16314;SDS011;8266;52.150;4.768;2023-05-14T10:18:07;4.95;;;3.92;;
16314;SDS011;8266;52.150;4.768;2023-05-14T10:20:36;6.45;;;3.47;;
16314;SDS011;8266;52.150;4.768;2023-05-14T10:23:05;5.72;;;3.70;;
16314;SDS011;8266;52.150;4.768;2023-05-14T10:25:32;7.43;;;4.47;;
16314;SDS011;8266;52.150;4.768;2023-05-14T10:28:01;4.78;;;3.70;;
16314;SDS011;8266;52.150;4.768;2023-05-14T10:30:30;3.90;;;3.50;;
16314;SDS011;8266;52.150;4.768;2023-05-14T10:33:07;6.75;;;3.78;;
16314;SDS011;8266;52.150;4.768;2023-05-14T10:35:50;9.45;;;3.88;;
16314;SDS011;8266;52.150;4.768;2023-05-14T10:38:22;5.07;;;3.58;;
16314;SDS011;8266;52.150;4.768;2023-05-14T10:40:53;8.30;;;3.63;;
16314;SDS011;8266;52.150;4.768;2023-05-14T10:43:23;7.07;;;3.60;;
16314;SDS011;8266;52.150;4.768;2023-05-14T10:45:52;6.50;;;3.45;;
16314;SDS011;8266;52.150;4.768;2023-05-14T10:48:19;5.10;;;3.13;;
16314;SDS011;8266;52.150;4.768;2023-05-14T10:50:46;8.80;;;3.20;;
16314;SDS011;8266;52.150;4.768;2023-05-14T10:53:13;4.97;;;3.33;;
16314;SDS011;8266;52.150;4.768;2023-05-14T10:55:43;5.53;;;3.53;;
16314;SDS011;8266;52.150;4.768;2023-05-14T10:58:11;6.25;;;3.53;;
16314;SDS011;8266;52.150;4.768;2023-05-14T11:00:40;5.65;;;3.30;;
16314;SDS011;8266;52.150;4.768;2023-05-14T11:03:07;5.63;;;3.33;;
16314;SDS011;8266;52.150;4.768;2023-05-14T11:05:37;5.22;;;3.58;;
16314;SDS011;8266;52.150;4.768;2023-05-14T11:08:07;8.07;;;4.15;;
16314;SDS011;8266;52.150;4.768;2023-05-14T11:10:34;3.90;;;3.00;;
16314;SDS011;8266;52.150;4.768;2023-05-14T11:13:03;4.55;;;3.47;;
16314;SDS011;8266;52.150;4.768;2023-05-14T11:15:29;4.63;;;3.50;;
16314;SDS011;8266;52.150;4.768;2023-05-14T11:17:58;6.78;;;3.33;;
16314;SDS011;8266;52.150;4.768;2023-05-14T11:20:25;6.57;;;3.30;;
16314;SDS011;8266;52.150;4.768;2023-05-14T11:22:52;6.75;;;3.35;;
16314;SDS011;8266;52.150;4.768;2023-05-14T11:25:19;4.25;;;3.22;;
16314;SDS011;8266;52.150;4.768;2023-05-14T11:27:49;8.38;;;3.78;;
16314;SDS011;8266;52.150;4.768;2023-05-14T11:30:20;6.47;;;3.47;;
16314;SDS011;8266;52.150;4.768;2023-05-14T11:32:47;3.95;;;3.00;;
16314;SDS011;8266;52.150;4.768;2023-05-14T11:35:17;4.05;;;3.15;;
16314;SDS011;8266;52.150;4.768;2023-05-14T11:37:48;4.65;;;3.15;;
16314;SDS011;8266;52.150;4.768;2023-05-14T11:40:16;4.78;;;3.10;;
16314;SDS011;8266;52.150;4.768;2023-05-14T11:42:43;5.35;;;3.08;;
16314;SDS011;8266;52.150;4.768;2023-05-14T11:45:11;3.55;;;2.65;;
16314;SDS011;8266;52.150;4.768;2023-05-14T11:47:39;8.57;;;3.38;;
16314;SDS011;8266;52.150;4.768;2023-05-14T11:50:07;3.33;;;2.78;;
16314;SDS011;8266;52.150;4.768;2023-05-14T11:52:37;5.25;;;2.63;;
16314;SDS011;8266;52.150;4.768;2023-05-14T11:55:07;4.75;;;2.85;;
16314;SDS011;8266;52.150;4.768;2023-05-14T11:57:37;7.43;;;3.17;;
16314;SDS011;8266;52.150;4.768;2023-05-14T12:00:06;6.00;;;3.03;;
16314;SDS011;8266;52.150;4.768;2023-05-14T12:02:35;5.10;;;3.00;;
16314;SDS011;8266;52.150;4.768;2023-05-14T12:05:03;8.82;;;3.40;;
16314;SDS011;8266;52.150;4.768;2023-05-14T12:07:33;8.27;;;3.33;;
16314;SDS011;8266;52.150;4.768;2023-05-14T12:10:01;3.53;;;2.92;;
16314;SDS011;8266;52.150;4.768;2023-05-14T12:12:33;5.10;;;2.42;;
16314;SDS011;8266;52.150;4.768;2023-05-14T12:15:00;2.97;;;2.67;;
16314;SDS011;8266;52.150;4.768;2023-05-14T12:17:27;3.88;;;2.40;;
16314;SDS011;8266;52.150;4.768;2023-05-14T12:19:55;3.35;;;2.58;;
16314;SDS011;8266;52.150;4.768;2023-05-14T12:22:22;4.93;;;2.28;;
16314;SDS011;8266;52.150;4.768;2023-05-14T12:24:52;3.50;;;2.70;;
16314;SDS011;8266;52.150;4.768;2023-05-14T12:27:22;4.75;;;2.50;;
16314;SDS011;8266;52.150;4.768;2023-05-14T12:29:50;4.95;;;2.72;;
16314;SDS011;8266;52.150;4.768;2023-05-14T12:32:24;7.10;;;2.67;;
16314;SDS011;8266;52.150;4.768;2023-05-14T12:34:51;5.05;;;3.10;;
16314;SDS011;8266;52.150;4.768;2023-05-14T12:37:18;6.47;;;2.72;;
16314;SDS011;8266;52.150;4.768;2023-05-14T12:39:45;4.60;;;2.80;;
16314;SDS011;8266;52.150;4.768;2023-05-14T12:42:13;3.30;;;2.45;;
16314;SDS011;8266;52.150;4.768;2023-05-14T12:44:41;5.40;;;2.40;;
16314;SDS011;8266;52.150;4.768;2023-05-14T12:47:08;5.78;;;2.88;;
16314;SDS011;8266;52.150;4.768;2023-05-14T12:49:35;4.47;;;2.75;;
16314;SDS011;8266;52.150;4.768;2023-05-14T12:52:03;3.30;;;2.35;;
16314;SDS011;8266;52.150;4.768;2023-05-14T12:54:30;5.70;;;2.70;;
16314;SDS011;8266;52.150;4.768;2023-05-14T12:56:57;6.43;;;2.85;;
16314;SDS011;8266;52.150;4.768;2023-05-14T12:59:24;4.53;;;2.28;;
16314;SDS011;8266;52.150;4.768;2023-05-14T13:01:53;5.50;;;2.72;;
16314;SDS011;8266;52.150;4.768;2023-05-14T13:04:19;7.15;;;2.88;;
16314;SDS011;8266;52.150;4.768;2023-05-14T13:06:46;9.73;;;3.10;;
16314;SDS011;8266;52.150;4.768;2023-05-14T13:09:13;3.92;;;2.47;;
16314;SDS011;8266;52.150;4.768;2023-05-14T13:11:40;6.28;;;2.80;;
16314;SDS011;8266;52.150;4.768;2023-05-14T13:14:07;8.18;;;2.72;;
16314;SDS011;8266;52.150;4.768;2023-05-14T13:16:34;4.47;;;1.80;;
16314;SDS011;8266;52.150;4.768;2023-05-14T13:19:02;5.57;;;2.13;;
16314;SDS011;8266;52.150;4.768;2023-05-14T13:21:29;6.45;;;2.33;;
16314;SDS011;8266;52.150;4.768;2023-05-14T13:23:56;3.85;;;2.05;;
16314;SDS011;8266;52.150;4.768;2023-05-14T13:26:23;7.00;;;2.47;;
16314;SDS011;8266;52.150;4.768;2023-05-14T13:28:52;6.55;;;2.38;;
16314;SDS011;8266;52.150;4.768;2023-05-14T13:31:19;6.72;;;2.70;;
16314;SDS011;8266;52.150;4.768;2023-05-14T13:33:46;4.00;;;2.10;;
16314;SDS011;8266;52.150;4.768;2023-05-14T13:36:14;5.75;;;2.17;;
16314;SDS011;8266;52.150;4.768;2023-05-14T13:38:41;4.10;;;2.40;;
16314;SDS011;8266;52.150;4.768;2023-05-14T13:41:10;5.72;;;3.05;;
16314;SDS011;8266;52.150;4.768;2023-05-14T13:43:37;6.05;;;2.42;;
16314;SDS011;8266;52.150;4.768;2023-05-14T13:46:04;7.60;;;2.22;;
16314;SDS011;8266;52.150;4.768;2023-05-14T13:48:32;5.32;;;2.58;;
16314;SDS011;8266;52.150;4.768;2023-05-14T13:50:59;6.13;;;2.70;;
16314;SDS011;8266;52.150;4.768;2023-05-14T13:53:28;6.07;;;2.58;;
16314;SDS011;8266;52.150;4.768;2023-05-14T13:55:55;5.13;;;2.28;;
16314;SDS011;8266;52.150;4.768;2023-05-14T13:58:22;4.93;;;2.50;;
16314;SDS011;8266;52.150;4.768;2023-05-14T14:00:49;5.75;;;2.58;;
16314;SDS011;8266;52.150;4.768;2023-05-14T14:03:17;6.53;;;2.85;;
16314;SDS011;8266;52.150;4.768;2023-05-14T14:05:44;5.78;;;2.58;;
16314;SDS011;8266;52.150;4.768;2023-05-14T14:08:11;6.55;;;2.85;;
16314;SDS011;8266;52.150;4.768;2023-05-14T14:10:40;4.03;;;2.88;;
16314;SDS011;8266;52.150;4.768;2023-05-14T14:13:07;4.55;;;2.83;;
16314;SDS011;8266;52.150;4.768;2023-05-14T14:15:34;4.10;;;3.35;;
16314;SDS011;8266;52.150;4.768;2023-05-14T14:18:01;7.93;;;3.75;;
16314;SDS011;8266;52.150;4.768;2023-05-14T14:20:28;6.50;;;3.42;;
16314;SDS011;8266;52.150;4.768;2023-05-14T14:22:56;7.85;;;4.22;;
16314;SDS011;8266;52.150;4.768;2023-05-14T14:25:23;8.20;;;3.75;;
16314;SDS011;8266;52.150;4.768;2023-05-14T14:27:51;6.22;;;3.65;;
16314;SDS011;8266;52.150;4.768;2023-05-14T14:30:18;5.88;;;4.28;;
16314;SDS011;8266;52.150;4.768;2023-05-14T14:32:46;5.60;;;4.30;;
16314;SDS011;8266;52.150;4.768;2023-05-14T14:35:13;5.50;;;4.25;;
16314;SDS011;8266;52.150;4.768;2023-05-14T14:37:42;7.88;;;4.38;;
16314;SDS011;8266;52.150;4.768;2023-05-14T14:40:13;5.35;;;3.80;;
16314;SDS011;8266;52.150;4.768;2023-05-14T14:42:40;6.53;;;4.75;;
16314;SDS011;8266;52.150;4.768;2023-05-14T14:45:09;7.90;;;4.43;;
16314;SDS011;8266;52.150;4.768;2023-05-14T14:47:37;6.13;;;4.78;;
16314;SDS011;8266;52.150;4.768;2023-05-14T14:50:07;5.07;;;4.28;;
16314;SDS011;8266;52.150;4.768;2023-05-14T14:52:35;6.05;;;4.40;;
16314;SDS011;8266;52.150;4.768;2023-05-14T14:55:02;6.65;;;4.35;;
16314;SDS011;8266;52.150;4.768;2023-05-14T14:57:29;5.90;;;3.80;;